sensor_id;sensor_type;location;lat;lon;timestamp;P1;durP1;ratioP1;P2;durP2;ratioP2
49962;SDS011;36180;57.678;11.910;2022-11-02T00:01:52;35.83;;;5.28;;
49962;SDS011;36180;57.678;11.910;2022-11-02T00:04:19;30.10;;;4.97;;
49962;SDS011;36180;57.678;11.910;2022-11-02T00:06:46;31.38;;;5.65;;
49962;SDS011;36180;57.678;11.910;2022-11-02T00:09:13;19.90;;;4.45;;
49962;SDS011;36180;57.678;11.910;2022-11-02T00:11:41;30.92;;;5.70;;
49962;SDS011;36180;57.678;11.910;2022-11-02T00:14:08;36.15;;;6.20;;
49962;SDS011;36180;57.678;11.910;2022-11-02T00:16:35;26.98;;;5.03;;
49962;SDS011;36180;57.678;11.910;2022-11-02T00:19:03;29.63;;;4.60;;
49962;SDS011;36180;57.678;11.910;2022-11-02T00:21:30;29.33;;;4.93;;
49962;SDS011;36180;57.678;11.910;2022-11-02T00:23:57;30.13;;;5.18;;
49962;SDS011;36180;57.678;11.910;2022-11-02T00:26:25;21.08;;;4.50;;
49962;SDS011;36180;57.678;11.910;2022-11-02T00:28:54;28.85;;;5.28;;
49962;SDS011;36180;57.678;11.910;2022-11-02T00:31:21;30.05;;;5.18;;
49962;SDS011;36180;57.678;11.910;2022-11-02T00:33:48;33.88;;;5.65;;
49962;SDS011;36180;57.678;11.910;2022-11-02T00:36:15;27.27;;;3.97;;
49962;SDS011;36180;57.678;11.910;2022-11-02T00:38:42;29.85;;;4.85;;
49962;SDS011;36180;57.678;11.910;2022-11-02T00:41:09;21.75;;;4.15;;
49962;SDS011;36180;57.678;11.910;2022-11-02T00:43:37;28.77;;;4.47;;
49962;SDS011;36180;57.678;11.910;2022-11-02T00:46:05;26.10;;;4.68;;
49962;SDS011;36180;57.678;11.910;2022-11-02T00:48:32;31.80;;;5.38;;
49962;SDS011;36180;57.678;11.910;2022-11-02T00:50:59;25.77;;;4.65;;
49962;SDS011;36180;57.678;11.910;2022-11-02T00:53:28;23.92;;;4.18;;
49962;SDS011;36180;57.678;11.910;2022-11-02T00:55:55;30.50;;;4.03;;
49962;SDS011;36180;57.678;11.910;2022-11-02T00:58:22;23.58;;;3.53;;
49962;SDS011;36180;57.678;11.910;2022-11-02T01:00:49;25.08;;;4.05;;
49962;SDS011;36180;57.678;11.910;2022-11-02T01:03:18;21.80;;;4.10;;
49962;SDS011;36180;57.678;11.910;2022-11-02T01:05:47;24.77;;;4.60;;
49962;SDS011;36180;57.678;11.910;2022-11-02T01:08:14;24.67;;;4.22;;
49962;SDS011;36180;57.678;11.910;2022-11-02T01:10:41;30.23;;;4.40;;
49962;SDS011;36180;57.678;11.910;2022-11-02T01:13:08;23.90;;;4.45;;
49962;SDS011;36180;57.678;11.910;2022-11-02T01:15:38;25.23;;;4.25;;
49962;SDS011;36180;57.678;11.910;2022-11-02T01:18:05;29.73;;;4.50;;
49962;SDS011;36180;57.678;11.910;2022-11-02T01:20:33;28.17;;;4.25;;
49962;SDS011;36180;57.678;11.910;2022-11-02T01:23:00;27.83;;;4.25;;
49962;SDS011;36180;57.678;11.910;2022-11-02T01:25:27;26.63;;;4.93;;
49962;SDS011;36180;57.678;11.910;2022-11-02T01:27:54;27.65;;;4.68;;
49962;SDS011;36180;57.678;11.910;2022-11-02T01:30:21;21.60;;;3.65;;
49962;SDS011;36180;57.678;11.910;2022-11-02T01:32:48;29.77;;;4.88;;
49962;SDS011;36180;57.678;11.910;2022-11-02T01:35:15;23.80;;;4.03;;
49962;SDS011;36180;57.678;11.910;2022-11-02T01:37:43;23.27;;;4.15;;
49962;SDS011;36180;57.678;11.910;2022-11-02T01:40:10;23.48;;;4.25;;
49962;SDS011;36180;57.678;11.910;2022-11-02T01:42:37;25.02;;;3.60;;
49962;SDS011;36180;57.678;11.910;2022-11-02T01:45:05;24.58;;;4.30;;
49962;SDS011;36180;57.678;11.910;2022-11-02T01:47:34;30.05;;;4.30;;
49962;SDS011;36180;57.678;11.910;2022-11-02T01:50:03;28.27;;;5.05;;
49962;SDS011;36180;57.678;11.910;2022-11-02T01:52:34;24.13;;;4.00;;
49962;SDS011;36180;57.678;11.910;2022-11-02T01:55:05;26.13;;;4.10;;
49962;SDS011;36180;57.678;11.910;2022-11-02T01:57:36;22.70;;;3.63;;
49962;SDS011;36180;57.678;11.910;2022-11-02T02:00:04;28.33;;;4.50;;
49962;SDS011;36180;57.678;11.910;2022-11-02T02:02:44;28.88;;;4.95;;
49962;SDS011;36180;57.678;11.910;2022-11-02T02:05:13;29.23;;;4.43;;
49962;SDS011;36180;57.678;11.910;2022-11-02T02:07:41;25.60;;;4.15;;
49962;SDS011;36180;57.678;11.910;2022-11-02T02:10:11;31.08;;;3.83;;
49962;SDS011;36180;57.678;11.910;2022-11-02T02:12:39;24.15;;;4.00;;
49962;SDS011;36180;57.678;11.910;2022-11-02T02:15:07;26.85;;;4.85;;
49962;SDS011;36180;57.678;11.910;2022-11-02T02:17:38;25.92;;;4.70;;
49962;SDS011;36180;57.678;11.910;2022-11-02T02:20:10;30.40;;;4.93;;
49962;SDS011;36180;57.678;11.910;2022-11-02T02:28:54;22.98;;;3.67;;
49962;SDS011;36180;57.678;11.910;2022-11-02T02:31:27;25.73;;;4.43;;
49962;SDS011;36180;57.678;11.910;2022-11-02T02:33:57;28.67;;;4.13;;
49962;SDS011;36180;57.678;11.910;2022-11-02T02:36:30;25.73;;;4.07;;
49962;SDS011;36180;57.678;11.910;2022-11-02T02:38:59;26.60;;;4.03;;
49962;SDS011;36180;57.678;11.910;2022-11-02T02:41:32;20.23;;;3.90;;
49962;SDS011;36180;57.678;11.910;2022-11-02T02:44:04;23.70;;;4.20;;
49962;SDS011;36180;57.678;11.910;2022-11-02T02:46:35;21.23;;;3.92;;
49962;SDS011;36180;57.678;11.910;2022-11-02T02:49:05;27.30;;;5.07;;
49962;SDS011;36180;57.678;11.910;2022-11-02T02:51:33;26.70;;;3.80;;
49962;SDS011;36180;57.678;11.910;2022-11-02T02:54:02;24.05;;;4.65;;
49962;SDS011;36180;57.678;11.910;2022-11-02T02:56:30;21.70;;;3.60;;
49962;SDS011;36180;57.678;11.910;2022-11-02T02:59:03;21.85;;;4.30;;
49962;SDS011;36180;57.678;11.910;2022-11-02T03:01:33;20.58;;;3.90;;
49962;SDS011;36180;57.678;11.910;2022-11-02T03:04:00;18.67;;;3.50;;
49962;SDS011;36180;57.678;11.910;2022-11-02T03:06:28;18.00;;;3.42;;
49962;SDS011;36180;57.678;11.910;2022-11-02T03:09:02;20.10;;;3.60;;
49962;SDS011;36180;57.678;11.910;2022-11-02T03:11:32;23.65;;;3.45;;
49962;SDS011;36180;57.678;11.910;2022-11-02T03:14:10;22.55;;;3.70;;
49962;SDS011;36180;57.678;11.910;2022-11-02T03:16:48;30.67;;;5.40;;
49962;SDS011;36180;57.678;11.910;2022-11-02T03:19:29;27.60;;;3.80;;
49962;SDS011;36180;57.678;11.910;2022-11-02T03:22:01;24.50;;;4.25;;
49962;SDS011;36180;57.678;11.910;2022-11-02T03:24:35;32.42;;;4.13;;
49962;SDS011;36180;57.678;11.910;2022-11-02T03:27:09;26.83;;;3.55;;
49962;SDS011;36180;57.678;11.910;2022-11-02T03:29:43;15.45;;;3.33;;
49962;SDS011;36180;57.678;11.910;2022-11-02T03:32:19;21.00;;;4.60;;
49962;SDS011;36180;57.678;11.910;2022-11-02T03:34:48;17.42;;;3.92;;
49962;SDS011;36180;57.678;11.910;2022-11-02T03:37:21;26.95;;;4.07;;
49962;SDS011;36180;57.678;11.910;2022-11-02T03:39:52;17.30;;;3.13;;
49962;SDS011;36180;57.678;11.910;2022-11-02T03:42:22;22.50;;;3.78;;
49962;SDS011;36180;57.678;11.910;2022-11-02T03:44:55;23.98;;;3.72;;
49962;SDS011;36180;57.678;11.910;2022-11-02T03:47:26;20.45;;;3.67;;
49962;SDS011;36180;57.678;11.910;2022-11-02T03:49:57;23.00;;;3.97;;
49962;SDS011;36180;57.678;11.910;2022-11-02T03:52:27;17.85;;;3.35;;
49962;SDS011;36180;57.678;11.910;2022-11-02T03:54:57;21.33;;;3.45;;
49962;SDS011;36180;57.678;11.910;2022-11-02T03:57:31;22.77;;;3.35;;
49962;SDS011;36180;57.678;11.910;2022-11-02T04:00:09;23.55;;;3.30;;
49962;SDS011;36180;57.678;11.910;2022-11-02T04:02:43;19.17;;;3.20;;
49962;SDS011;36180;57.678;11.910;2022-11-02T04:05:12;24.50;;;4.10;;
49962;SDS011;36180;57.678;11.910;2022-11-02T04:07:40;21.85;;;3.50;;
49962;SDS011;36180;57.678;11.910;2022-11-02T04:10:27;24.80;;;3.72;;
49962;SDS011;36180;57.678;11.910;2022-11-02T04:12:54;24.35;;;4.05;;
49962;SDS011;36180;57.678;11.910;2022-11-02T04:15:40;24.23;;;4.38;;
49962;SDS011;36180;57.678;11.910;2022-11-02T04:18:07;24.52;;;3.28;;
49962;SDS011;36180;57.678;11.910;2022-11-02T04:20:52;19.42;;;4.10;;
49962;SDS011;36180;57.678;11.910;2022-11-02T04:23:19;17.73;;;3.42;;
49962;SDS011;36180;57.678;11.910;2022-11-02T04:26:04;22.90;;;3.72;;
49962;SDS011;36180;57.678;11.910;2022-11-02T04:28:35;32.73;;;4.40;;
49962;SDS011;36180;57.678;11.910;2022-11-02T04:31:04;22.00;;;3.42;;
49962;SDS011;36180;57.678;11.910;2022-11-02T04:33:36;24.27;;;3.40;;
49962;SDS011;36180;57.678;11.910;2022-11-02T04:36:09;23.70;;;3.60;;
49962;SDS011;36180;57.678;11.910;2022-11-02T04:38:38;22.63;;;3.25;;
49962;SDS011;36180;57.678;11.910;2022-11-02T04:41:25;18.27;;;3.28;;
49962;SDS011;36180;57.678;11.910;2022-11-02T04:44:26;14.48;;;3.28;;
49962;SDS011;36180;57.678;11.910;2022-11-02T04:49:30;24.35;;;3.63;;
49962;SDS011;36180;57.678;11.910;2022-11-02T04:51:57;17.63;;;3.20;;
49962;SDS011;36180;57.678;11.910;2022-11-02T04:54:27;16.15;;;2.67;;
49962;SDS011;36180;57.678;11.910;2022-11-02T04:56:58;16.63;;;3.63;;
49962;SDS011;36180;57.678;11.910;2022-11-02T04:59:27;18.83;;;3.10;;
49962;SDS011;36180;57.678;11.910;2022-11-02T05:01:54;25.65;;;3.88;;
49962;SDS011;36180;57.678;11.910;2022-11-02T05:04:22;23.52;;;3.90;;
49962;SDS011;36180;57.678;11.910;2022-11-02T05:06:50;22.33;;;3.63;;
49962;SDS011;36180;57.678;11.910;2022-11-02T05:09:18;19.25;;;3.33;;
49962;SDS011;36180;57.678;11.910;2022-11-02T05:11:46;18.95;;;3.58;;
49962;SDS011;36180;57.678;11.910;2022-11-02T05:14:14;18.10;;;3.55;;
49962;SDS011;36180;57.678;11.910;2022-11-02T05:16:41;19.27;;;4.13;;
49962;SDS011;36180;57.678;11.910;2022-11-02T05:19:10;25.90;;;4.18;;
49962;SDS011;36180;57.678;11.910;2022-11-02T05:21:39;24.10;;;4.28;;
49962;SDS011;36180;57.678;11.910;2022-11-02T05:24:07;19.05;;;3.58;;
49962;SDS011;36180;57.678;11.910;2022-11-02T05:26:34;26.88;;;4.35;;
49962;SDS011;36180;57.678;11.910;2022-11-02T05:29:02;31.38;;;4.43;;
49962;SDS011;36180;57.678;11.910;2022-11-02T05:31:30;25.63;;;4.22;;
49962;SDS011;36180;57.678;11.910;2022-11-02T05:33:57;26.98;;;4.03;;
49962;SDS011;36180;57.678;11.910;2022-11-02T05:36:24;23.77;;;3.88;;
49962;SDS011;36180;57.678;11.910;2022-11-02T05:38:52;34.97;;;5.28;;
49962;SDS011;36180;57.678;11.910;2022-11-02T05:41:20;21.17;;;3.83;;
49962;SDS011;36180;57.678;11.910;2022-11-02T05:43:49;22.10;;;4.32;;
49962;SDS011;36180;57.678;11.910;2022-11-02T05:46:18;26.77;;;4.13;;
49962;SDS011;36180;57.678;11.910;2022-11-02T05:48:45;25.08;;;4.00;;
49962;SDS011;36180;57.678;11.910;2022-11-02T05:51:12;28.15;;;4.45;;
49962;SDS011;36180;57.678;11.910;2022-11-02T05:53:39;26.15;;;4.60;;
49962;SDS011;36180;57.678;11.910;2022-11-02T05:56:08;25.42;;;4.25;;
49962;SDS011;36180;57.678;11.910;2022-11-02T05:58:36;31.40;;;4.78;;
49962;SDS011;36180;57.678;11.910;2022-11-02T06:01:04;19.77;;;4.55;;
49962;SDS011;36180;57.678;11.910;2022-11-02T06:03:32;23.33;;;4.82;;
49962;SDS011;36180;57.678;11.910;2022-11-02T06:06:01;23.77;;;4.03;;
49962;SDS011;36180;57.678;11.910;2022-11-02T06:08:30;28.60;;;5.25;;
49962;SDS011;36180;57.678;11.910;2022-11-02T06:10:57;26.58;;;4.93;;
49962;SDS011;36180;57.678;11.910;2022-11-02T06:13:26;22.10;;;4.60;;
49962;SDS011;36180;57.678;11.910;2022-11-02T06:15:53;27.30;;;4.90;;
49962;SDS011;36180;57.678;11.910;2022-11-02T06:18:20;34.22;;;4.60;;
49962;SDS011;36180;57.678;11.910;2022-11-02T06:20:47;20.13;;;4.78;;
49962;SDS011;36180;57.678;11.910;2022-11-02T06:23:14;20.63;;;4.55;;
49962;SDS011;36180;57.678;11.910;2022-11-02T06:25:42;25.52;;;4.88;;
49962;SDS011;36180;57.678;11.910;2022-11-02T06:28:09;24.85;;;4.32;;
49962;SDS011;36180;57.678;11.910;2022-11-02T06:30:38;23.65;;;4.90;;
49962;SDS011;36180;57.678;11.910;2022-11-02T06:33:05;26.20;;;5.10;;
49962;SDS011;36180;57.678;11.910;2022-11-02T06:35:32;26.45;;;4.40;;
49962;SDS011;36180;57.678;11.910;2022-11-02T06:37:59;28.70;;;4.90;;
49962;SDS011;36180;57.678;11.910;2022-11-02T06:40:26;27.80;;;4.68;;
49962;SDS011;36180;57.678;11.910;2022-11-02T06:42:54;30.95;;;4.68;;
49962;SDS011;36180;57.678;11.910;2022-11-02T06:45:21;20.15;;;3.90;;
49962;SDS011;36180;57.678;11.910;2022-11-02T06:47:49;19.40;;;4.47;;
49962;SDS011;36180;57.678;11.910;2022-11-02T06:50:16;22.02;;;3.97;;
49962;SDS011;36180;57.678;11.910;2022-11-02T06:52:44;31.10;;;5.05;;
49962;SDS011;36180;57.678;11.910;2022-11-02T06:55:12;23.23;;;4.88;;
49962;SDS011;36180;57.678;11.910;2022-11-02T06:57:40;21.83;;;3.83;;
49962;SDS011;36180;57.678;11.910;2022-11-02T07:00:09;24.20;;;4.28;;
49962;SDS011;36180;57.678;11.910;2022-11-02T07:02:38;22.08;;;4.10;;
49962;SDS011;36180;57.678;11.910;2022-11-02T07:05:06;22.70;;;4.43;;
49962;SDS011;36180;57.678;11.910;2022-11-02T07:07:34;23.40;;;4.10;;
49962;SDS011;36180;57.678;11.910;2022-11-02T07:10:01;29.50;;;4.63;;
49962;SDS011;36180;57.678;11.910;2022-11-02T07:12:30;27.08;;;5.55;;
49962;SDS011;36180;57.678;11.910;2022-11-02T07:14:57;29.60;;;4.70;;
49962;SDS011;36180;57.678;11.910;2022-11-02T07:17:24;24.48;;;4.93;;
49962;SDS011;36180;57.678;11.910;2022-11-02T07:19:51;36.15;;;5.45;;
49962;SDS011;36180;57.678;11.910;2022-11-02T07:22:19;26.23;;;5.07;;
49962;SDS011;36180;57.678;11.910;2022-11-02T07:24:46;26.60;;;5.75;;
49962;SDS011;36180;57.678;11.910;2022-11-02T07:27:13;27.67;;;5.35;;
49962;SDS011;36180;57.678;11.910;2022-11-02T07:29:41;40.10;;;5.90;;
49962;SDS011;36180;57.678;11.910;2022-11-02T07:32:08;38.03;;;6.25;;
49962;SDS011;36180;57.678;11.910;2022-11-02T07:34:35;47.42;;;6.38;;
49962;SDS011;36180;57.678;11.910;2022-11-02T07:37:02;29.45;;;5.63;;
49962;SDS011;36180;57.678;11.910;2022-11-02T07:39:30;35.30;;;5.38;;
49962;SDS011;36180;57.678;11.910;2022-11-02T07:41:57;31.67;;;5.50;;
49962;SDS011;36180;57.678;11.910;2022-11-02T07:44:24;26.95;;;5.10;;
49962;SDS011;36180;57.678;11.910;2022-11-02T07:46:54;32.00;;;5.90;;
49962;SDS011;36180;57.678;11.910;2022-11-02T07:49:21;38.85;;;6.20;;
49962;SDS011;36180;57.678;11.910;2022-11-02T07:51:47;32.33;;;5.85;;
49962;SDS011;36180;57.678;11.910;2022-11-02T07:54:14;33.60;;;6.65;;
49962;SDS011;36180;57.678;11.910;2022-11-02T07:56:44;34.88;;;6.53;;
49962;SDS011;36180;57.678;11.910;2022-11-02T07:59:11;38.42;;;6.40;;
49962;SDS011;36180;57.678;11.910;2022-11-02T08:01:38;41.47;;;7.07;;
49962;SDS011;36180;57.678;11.910;2022-11-02T08:04:05;35.95;;;6.40;;
49962;SDS011;36180;57.678;11.910;2022-11-02T08:06:33;41.03;;;7.45;;
49962;SDS011;36180;57.678;11.910;2022-11-02T08:09:00;39.75;;;6.88;;
49962;SDS011;36180;57.678;11.910;2022-11-02T08:11:28;41.17;;;6.65;;
49962;SDS011;36180;57.678;11.910;2022-11-02T08:13:56;35.03;;;6.28;;
49962;SDS011;36180;57.678;11.910;2022-11-02T08:16:23;38.35;;;6.47;;
49962;SDS011;36180;57.678;11.910;2022-11-02T08:18:50;33.45;;;7.65;;
49962;SDS011;36180;57.678;11.910;2022-11-02T08:21:17;42.28;;;6.35;;
49962;SDS011;36180;57.678;11.910;2022-11-02T08:23:44;34.85;;;7.45;;
49962;SDS011;36180;57.678;11.910;2022-11-02T08:26:11;29.05;;;6.03;;
49962;SDS011;36180;57.678;11.910;2022-11-02T08:28:38;32.75;;;6.28;;
49962;SDS011;36180;57.678;11.910;2022-11-02T08:31:08;42.60;;;6.53;;
49962;SDS011;36180;57.678;11.910;2022-11-02T08:33:37;24.15;;;6.75;;
49962;SDS011;36180;57.678;11.910;2022-11-02T08:36:04;30.50;;;6.38;;
49962;SDS011;36180;57.678;11.910;2022-11-02T08:38:32;27.20;;;5.90;;
49962;SDS011;36180;57.678;11.910;2022-11-02T08:40:59;32.75;;;6.57;;
49962;SDS011;36180;57.678;11.910;2022-11-02T08:43:26;25.55;;;5.65;;
49962;SDS011;36180;57.678;11.910;2022-11-02T08:45:55;32.80;;;6.47;;
49962;SDS011;36180;57.678;11.910;2022-11-02T08:48:24;25.90;;;6.93;;
49962;SDS011;36180;57.678;11.910;2022-11-02T08:50:51;32.33;;;5.82;;
49962;SDS011;36180;57.678;11.910;2022-11-02T08:53:18;30.95;;;5.80;;
49962;SDS011;36180;57.678;11.910;2022-11-02T08:55:45;28.13;;;5.60;;
49962;SDS011;36180;57.678;11.910;2022-11-02T08:58:12;25.70;;;5.47;;
49962;SDS011;36180;57.678;11.910;2022-11-02T09:00:39;25.85;;;5.43;;
49962;SDS011;36180;57.678;11.910;2022-11-02T09:03:06;27.65;;;4.47;;
49962;SDS011;36180;57.678;11.910;2022-11-02T09:05:36;25.90;;;5.40;;
49962;SDS011;36180;57.678;11.910;2022-11-02T09:08:05;32.67;;;5.65;;
49962;SDS011;36180;57.678;11.910;2022-11-02T09:10:33;25.05;;;5.90;;
49962;SDS011;36180;57.678;11.910;2022-11-02T09:13:02;26.40;;;5.97;;
49962;SDS011;36180;57.678;11.910;2022-11-02T09:15:31;27.05;;;5.90;;
49962;SDS011;36180;57.678;11.910;2022-11-02T09:17:58;20.95;;;4.57;;
49962;SDS011;36180;57.678;11.910;2022-11-02T09:20:25;22.70;;;5.43;;
49962;SDS011;36180;57.678;11.910;2022-11-02T09:22:54;22.30;;;5.40;;
49962;SDS011;36180;57.678;11.910;2022-11-02T09:25:20;24.65;;;5.47;;
49962;SDS011;36180;57.678;11.910;2022-11-02T09:27:50;26.60;;;5.82;;
49962;SDS011;36180;57.678;11.910;2022-11-02T09:30:19;21.08;;;5.10;;
49962;SDS011;36180;57.678;11.910;2022-11-02T09:32:52;25.42;;;5.82;;
49962;SDS011;36180;57.678;11.910;2022-11-02T09:35:19;32.05;;;6.13;;
49962;SDS011;36180;57.678;11.910;2022-11-02T09:37:46;29.05;;;6.03;;
49962;SDS011;36180;57.678;11.910;2022-11-02T09:40:14;22.20;;;6.05;;
49962;SDS011;36180;57.678;11.910;2022-11-02T09:42:47;30.23;;;6.35;;
49962;SDS011;36180;57.678;11.910;2022-11-02T09:45:24;24.05;;;5.85;;
49962;SDS011;36180;57.678;11.910;2022-11-02T09:47:53;27.73;;;5.78;;
49962;SDS011;36180;57.678;11.910;2022-11-02T09:53:07;36.35;;;6.32;;
49962;SDS011;36180;57.678;11.910;2022-11-02T09:55:47;25.08;;;5.72;;
49962;SDS011;36180;57.678;11.910;2022-11-02T09:58:17;23.45;;;5.95;;
49962;SDS011;36180;57.678;11.910;2022-11-02T10:00:47;33.95;;;7.05;;
49962;SDS011;36180;57.678;11.910;2022-11-02T10:03:18;25.42;;;6.35;;
49962;SDS011;36180;57.678;11.910;2022-11-02T10:05:51;31.77;;;6.75;;
49962;SDS011;36180;57.678;11.910;2022-11-02T10:08:23;29.33;;;7.15;;
49962;SDS011;36180;57.678;11.910;2022-11-02T10:11:00;30.85;;;7.40;;
49962;SDS011;36180;57.678;11.910;2022-11-02T10:13:39;28.80;;;6.57;;
49962;SDS011;36180;57.678;11.910;2022-11-02T10:16:10;24.73;;;6.72;;
49962;SDS011;36180;57.678;11.910;2022-11-02T10:18:39;23.35;;;6.25;;
49962;SDS011;36180;57.678;11.910;2022-11-02T10:21:08;18.48;;;4.93;;
49962;SDS011;36180;57.678;11.910;2022-11-02T10:23:38;22.70;;;5.13;;
49962;SDS011;36180;57.678;11.910;2022-11-02T10:26:08;34.17;;;6.82;;
49962;SDS011;36180;57.678;11.910;2022-11-02T10:28:41;28.33;;;5.82;;
49962;SDS011;36180;57.678;11.910;2022-11-02T10:31:14;21.52;;;5.30;;
49962;SDS011;36180;57.678;11.910;2022-11-02T10:33:47;24.83;;;5.07;;
49962;SDS011;36180;57.678;11.910;2022-11-02T10:36:18;23.02;;;4.97;;
49962;SDS011;36180;57.678;11.910;2022-11-02T10:39:05;24.20;;;5.07;;
49962;SDS011;36180;57.678;11.910;2022-11-02T10:41:42;16.40;;;4.85;;
49962;SDS011;36180;57.678;11.910;2022-11-02T10:44:21;16.00;;;3.75;;
49962;SDS011;36180;57.678;11.910;2022-11-02T10:46:55;24.80;;;4.68;;
49962;SDS011;36180;57.678;11.910;2022-11-02T10:49:35;22.42;;;5.07;;
49962;SDS011;36180;57.678;11.910;2022-11-02T10:52:16;22.60;;;4.28;;
49962;SDS011;36180;57.678;11.910;2022-11-02T10:54:44;14.80;;;4.25;;
49962;SDS011;36180;57.678;11.910;2022-11-02T10:57:12;21.73;;;4.78;;
49962;SDS011;36180;57.678;11.910;2022-11-02T10:59:40;19.00;;;4.68;;
49962;SDS011;36180;57.678;11.910;2022-11-02T11:02:09;22.85;;;4.72;;
49962;SDS011;36180;57.678;11.910;2022-11-02T11:04:38;20.00;;;4.20;;
49962;SDS011;36180;57.678;11.910;2022-11-02T11:07:10;22.92;;;4.25;;
49962;SDS011;36180;57.678;11.910;2022-11-02T11:09:45;22.45;;;4.65;;
49962;SDS011;36180;57.678;11.910;2022-11-02T11:12:16;25.60;;;4.53;;
49962;SDS011;36180;57.678;11.910;2022-11-02T11:14:47;20.85;;;4.28;;
49962;SDS011;36180;57.678;11.910;2022-11-02T11:17:16;23.60;;;4.40;;
49962;SDS011;36180;57.678;11.910;2022-11-02T11:19:49;22.92;;;3.78;;
49962;SDS011;36180;57.678;11.910;2022-11-02T11:22:24;17.05;;;3.50;;
49962;SDS011;36180;57.678;11.910;2022-11-02T11:24:52;19.30;;;3.42;;
49962;SDS011;36180;57.678;11.910;2022-11-02T11:27:21;13.93;;;3.33;;
49962;SDS011;36180;57.678;11.910;2022-11-02T11:29:49;21.30;;;3.33;;
49962;SDS011;36180;57.678;11.910;2022-11-02T11:32:19;15.57;;;3.17;;
49962;SDS011;36180;57.678;11.910;2022-11-02T11:34:52;17.98;;;3.08;;
49962;SDS011;36180;57.678;11.910;2022-11-02T11:37:20;17.85;;;2.72;;
49962;SDS011;36180;57.678;11.910;2022-11-02T11:39:49;14.02;;;2.60;;
49962;SDS011;36180;57.678;11.910;2022-11-02T11:42:21;9.97;;;2.17;;
49962;SDS011;36180;57.678;11.910;2022-11-02T11:44:52;10.68;;;1.90;;
49962;SDS011;36180;57.678;11.910;2022-11-02T11:47:23;11.13;;;2.22;;
49962;SDS011;36180;57.678;11.910;2022-11-02T11:49:51;14.80;;;2.08;;
49962;SDS011;36180;57.678;11.910;2022-11-02T11:52:20;16.50;;;2.17;;
49962;SDS011;36180;57.678;11.910;2022-11-02T11:54:51;12.85;;;1.85;;
49962;SDS011;36180;57.678;11.910;2022-11-02T11:57:23;12.23;;;1.95;;
49962;SDS011;36180;57.678;11.910;2022-11-02T11:59:55;8.82;;;1.60;;
49962;SDS011;36180;57.678;11.910;2022-11-02T12:02:26;16.17;;;1.92;;
49962;SDS011;36180;57.678;11.910;2022-11-02T12:04:57;13.75;;;2.22;;
49962;SDS011;36180;57.678;11.910;2022-11-02T12:07:29;12.35;;;1.50;;
49962;SDS011;36180;57.678;11.910;2022-11-02T12:10:06;13.52;;;1.90;;
49962;SDS011;36180;57.678;11.910;2022-11-02T12:12:46;12.57;;;1.50;;
49962;SDS011;36180;57.678;11.910;2022-11-02T12:15:22;13.57;;;2.28;;
49962;SDS011;36180;57.678;11.910;2022-11-02T12:18:02;14.20;;;2.05;;
49962;SDS011;36180;57.678;11.910;2022-11-02T12:20:45;12.65;;;1.60;;
49962;SDS011;36180;57.678;11.910;2022-11-02T12:23:26;9.35;;;1.90;;
49962;SDS011;36180;57.678;11.910;2022-11-02T12:26:06;24.90;;;2.25;;
49962;SDS011;36180;57.678;11.910;2022-11-02T12:28:42;16.60;;;1.75;;
49962;SDS011;36180;57.678;11.910;2022-11-02T12:31:16;18.23;;;2.35;;
49962;SDS011;36180;57.678;11.910;2022-11-02T12:33:51;9.05;;;1.48;;
49962;SDS011;36180;57.678;11.910;2022-11-02T12:36:33;14.13;;;1.50;;
49962;SDS011;36180;57.678;11.910;2022-11-02T12:39:06;9.32;;;1.70;;
49962;SDS011;36180;57.678;11.910;2022-11-02T12:47:21;10.55;;;1.77;;
49962;SDS011;36180;57.678;11.910;2022-11-02T12:49:57;9.02;;;1.60;;
49962;SDS011;36180;57.678;11.910;2022-11-02T12:52:36;11.75;;;1.63;;
49962;SDS011;36180;57.678;11.910;2022-11-02T12:55:11;4.97;;;1.13;;
49962;SDS011;36180;57.678;11.910;2022-11-02T12:57:41;8.18;;;1.42;;
49962;SDS011;36180;57.678;11.910;2022-11-02T13:00:15;12.50;;;1.60;;
49962;SDS011;36180;57.678;11.910;2022-11-02T13:02:46;6.22;;;1.00;;
49962;SDS011;36180;57.678;11.910;2022-11-02T13:05:19;6.75;;;1.38;;
49962;SDS011;36180;57.678;11.910;2022-11-02T13:07:48;6.60;;;1.58;;
49962;SDS011;36180;57.678;11.910;2022-11-02T13:10:18;8.15;;;1.48;;
49962;SDS011;36180;57.678;11.910;2022-11-02T13:12:46;8.98;;;1.40;;
49962;SDS011;36180;57.678;11.910;2022-11-02T13:15:17;7.93;;;1.65;;
49962;SDS011;36180;57.678;11.910;2022-11-02T13:17:46;7.18;;;0.90;;
49962;SDS011;36180;57.678;11.910;2022-11-02T13:20:16;11.25;;;1.25;;
49962;SDS011;36180;57.678;11.910;2022-11-02T13:22:47;9.57;;;1.10;;
49962;SDS011;36180;57.678;11.910;2022-11-02T13:25:18;9.48;;;1.40;;
49962;SDS011;36180;57.678;11.910;2022-11-02T13:27:47;9.05;;;1.02;;
49962;SDS011;36180;57.678;11.910;2022-11-02T13:30:19;12.07;;;1.98;;
49962;SDS011;36180;57.678;11.910;2022-11-02T13:32:47;10.88;;;2.13;;
49962;SDS011;36180;57.678;11.910;2022-11-02T13:35:18;12.50;;;2.17;;
49962;SDS011;36180;57.678;11.910;2022-11-02T13:37:47;10.20;;;1.35;;
49962;SDS011;36180;57.678;11.910;2022-11-02T13:40:19;6.38;;;1.55;;
49962;SDS011;36180;57.678;11.910;2022-11-02T13:43:04;10.00;;;1.75;;
49962;SDS011;36180;57.678;11.910;2022-11-02T13:45:45;12.30;;;1.55;;
49962;SDS011;36180;57.678;11.910;2022-11-02T13:51:05;7.00;;;1.50;;
49962;SDS011;36180;57.678;11.910;2022-11-02T13:53:37;10.32;;;1.50;;
49962;SDS011;36180;57.678;11.910;2022-11-02T13:56:07;10.02;;;1.98;;
49962;SDS011;36180;57.678;11.910;2022-11-02T13:58:36;12.00;;;1.65;;
49962;SDS011;36180;57.678;11.910;2022-11-02T14:01:08;11.57;;;1.83;;
49962;SDS011;36180;57.678;11.910;2022-11-02T14:03:41;14.93;;;2.15;;
49962;SDS011;36180;57.678;11.910;2022-11-02T14:06:13;13.50;;;1.90;;
49962;SDS011;36180;57.678;11.910;2022-11-02T14:08:42;11.30;;;1.60;;
49962;SDS011;36180;57.678;11.910;2022-11-02T14:11:24;10.65;;;1.70;;
49962;SDS011;36180;57.678;11.910;2022-11-02T14:19:53;12.00;;;1.73;;
49962;SDS011;36180;57.678;11.910;2022-11-02T14:22:22;11.18;;;1.80;;
49962;SDS011;36180;57.678;11.910;2022-11-02T14:24:50;9.73;;;1.63;;
49962;SDS011;36180;57.678;11.910;2022-11-02T14:27:27;13.43;;;1.95;;
49962;SDS011;36180;57.678;11.910;2022-11-02T14:29:56;7.30;;;1.52;;
49962;SDS011;36180;57.678;11.910;2022-11-02T14:32:30;12.15;;;1.98;;
49962;SDS011;36180;57.678;11.910;2022-11-02T14:35:26;9.40;;;1.80;;
49962;SDS011;36180;57.678;11.910;2022-11-02T14:38:09;12.00;;;2.22;;
49962;SDS011;36180;57.678;11.910;2022-11-02T14:40:48;18.65;;;1.75;;
49962;SDS011;36180;57.678;11.910;2022-11-02T14:46:32;5.95;;;1.50;;
49962;SDS011;36180;57.678;11.910;2022-11-02T14:49:13;6.72;;;1.58;;
49962;SDS011;36180;57.678;11.910;2022-11-02T14:51:42;12.10;;;1.90;;
49962;SDS011;36180;57.678;11.910;2022-11-02T14:54:13;4.85;;;1.70;;
49962;SDS011;36180;57.678;11.910;2022-11-02T14:56:45;11.90;;;1.60;;
49962;SDS011;36180;57.678;11.910;2022-11-02T14:59:15;8.73;;;1.70;;
49962;SDS011;36180;57.678;11.910;2022-11-02T15:01:51;10.45;;;1.67;;
49962;SDS011;36180;57.678;11.910;2022-11-02T15:04:22;12.25;;;1.60;;
49962;SDS011;36180;57.678;11.910;2022-11-02T15:06:50;12.40;;;1.95;;
49962;SDS011;36180;57.678;11.910;2022-11-02T15:12:23;12.15;;;1.98;;
49962;SDS011;36180;57.678;11.910;2022-11-02T15:15:01;14.23;;;2.47;;